sensor_id;sensor_type;location;lat;lon;timestamp;P1;durP1;ratioP1;P2;durP2;ratioP2
27225;SDS011;14732;51.074;3.788;2022-12-29T00:01:56;1.52;;;0.80;;
27225;SDS011;14732;51.074;3.788;2022-12-29T00:04:22;1.17;;;0.90;;
27225;SDS011;14732;51.074;3.788;2022-12-29T00:06:47;0.88;;;0.80;;
27225;SDS011;14732;51.074;3.788;2022-12-29T00:09:13;1.35;;;0.80;;
27225;SDS011;14732;51.074;3.788;2022-12-29T00:11:41;1.48;;;0.73;;
27225;SDS011;14732;51.074;3.788;2022-12-29T00:14:10;0.85;;;0.70;;
27225;SDS011;14732;51.074;3.788;2022-12-29T00:16:55;0.85;;;0.47;;
27225;SDS011;14732;51.074;3.788;2022-12-29T00:19:21;1.63;;;0.75;;
27225;SDS011;14732;51.074;3.788;2022-12-29T00:22:05;3.40;;;0.70;;
27225;SDS011;14732;51.074;3.788;2022-12-29T00:24:51;1.40;;;0.80;;
27225;SDS011;14732;51.074;3.788;2022-12-29T00:27:35;1.73;;;0.50;;
27225;SDS011;14732;51.074;3.788;2022-12-29T00:30:20;1.35;;;0.50;;
27225;SDS011;14732;51.074;3.788;2022-12-29T00:36:09;1.65;;;0.68;;
27225;SDS011;14732;51.074;3.788;2022-12-29T00:38:41;5.18;;;0.50;;
27225;SDS011;14732;51.074;3.788;2022-12-29T00:44:14;1.02;;;0.40;;
27225;SDS011;14732;51.074;3.788;2022-12-29T00:46:40;3.50;;;0.70;;
27225;SDS011;14732;51.074;3.788;2022-12-29T00:49:08;2.33;;;0.70;;
27225;SDS011;14732;51.074;3.788;2022-12-29T00:51:54;3.33;;;0.60;;
27225;SDS011;14732;51.074;3.788;2022-12-29T00:54:21;2.45;;;0.60;;
27225;SDS011;14732;51.074;3.788;2022-12-29T00:56:48;1.50;;;0.68;;
27225;SDS011;14732;51.074;3.788;2022-12-29T00:59:14;1.65;;;0.52;;
27225;SDS011;14732;51.074;3.788;2022-12-29T01:01:40;3.10;;;0.60;;
27225;SDS011;14732;51.074;3.788;2022-12-29T01:04:06;2.72;;;0.60;;
27225;SDS011;14732;51.074;3.788;2022-12-29T01:06:33;1.23;;;0.50;;
27225;SDS011;14732;51.074;3.788;2022-12-29T01:08:59;4.90;;;0.90;;
27225;SDS011;14732;51.074;3.788;2022-12-29T01:11:44;4.95;;;0.90;;
27225;SDS011;14732;51.074;3.788;2022-12-29T01:14:10;1.80;;;0.50;;
27225;SDS011;14732;51.074;3.788;2022-12-29T01:16:35;2.72;;;0.60;;
27225;SDS011;14732;51.074;3.788;2022-12-29T01:19:02;2.03;;;0.50;;
27225;SDS011;14732;51.074;3.788;2022-12-29T01:21:28;5.10;;;0.65;;
27225;SDS011;14732;51.074;3.788;2022-12-29T01:23:54;3.50;;;0.80;;
27225;SDS011;14732;51.074;3.788;2022-12-29T01:26:19;3.13;;;0.60;;
27225;SDS011;14732;51.074;3.788;2022-12-29T01:28:45;3.42;;;0.68;;
27225;SDS011;14732;51.074;3.788;2022-12-29T01:31:12;4.18;;;0.70;;
27225;SDS011;14732;51.074;3.788;2022-12-29T01:33:39;2.72;;;0.70;;
27225;SDS011;14732;51.074;3.788;2022-12-29T01:36:06;2.20;;;0.60;;
27225;SDS011;14732;51.074;3.788;2022-12-29T01:38:35;5.83;;;1.00;;
27225;SDS011;14732;51.074;3.788;2022-12-29T01:41:01;7.32;;;0.82;;
27225;SDS011;14732;51.074;3.788;2022-12-29T01:43:41;2.40;;;0.60;;
27225;SDS011;14732;51.074;3.788;2022-12-29T01:46:30;8.30;;;0.90;;
27225;SDS011;14732;51.074;3.788;2022-12-29T01:49:16;2.80;;;0.70;;
27225;SDS011;14732;51.074;3.788;2022-12-29T01:51:50;3.70;;;0.60;;
27225;SDS011;14732;51.074;3.788;2022-12-29T01:54:18;3.50;;;0.88;;
27225;SDS011;14732;51.074;3.788;2022-12-29T01:56:50;3.75;;;0.65;;
27225;SDS011;14732;51.074;3.788;2022-12-29T01:59:18;4.07;;;0.85;;
27225;SDS011;14732;51.074;3.788;2022-12-29T02:01:50;5.97;;;0.68;;
27225;SDS011;14732;51.074;3.788;2022-12-29T02:04:16;5.45;;;0.70;;
27225;SDS011;14732;51.074;3.788;2022-12-29T02:06:53;3.55;;;0.70;;
27225;SDS011;14732;51.074;3.788;2022-12-29T02:09:24;5.20;;;0.88;;
27225;SDS011;14732;51.074;3.788;2022-12-29T02:11:50;5.32;;;0.70;;
27225;SDS011;14732;51.074;3.788;2022-12-29T02:14:17;4.85;;;0.77;;
27225;SDS011;14732;51.074;3.788;2022-12-29T02:22:21;4.32;;;0.90;;
27225;SDS011;14732;51.074;3.788;2022-12-29T02:25:27;2.22;;;0.80;;
27225;SDS011;14732;51.074;3.788;2022-12-29T02:33:24;3.13;;;0.80;;
27225;SDS011;14732;51.074;3.788;2022-12-29T02:36:25;5.30;;;0.93;;
27225;SDS011;14732;51.074;3.788;2022-12-29T02:47:23;4.03;;;0.73;;
27225;SDS011;14732;51.074;3.788;2022-12-29T02:52:59;1.98;;;0.40;;
27225;SDS011;14732;51.074;3.788;2022-12-29T02:55:27;3.97;;;0.73;;
27225;SDS011;14732;51.074;3.788;2022-12-29T03:00:37;6.07;;;0.90;;
27225;SDS011;14732;51.074;3.788;2022-12-29T03:09:12;2.67;;;0.80;;
27225;SDS011;14732;51.074;3.788;2022-12-29T03:12:00;3.83;;;0.82;;
27225;SDS011;14732;51.074;3.788;2022-12-29T03:15:13;3.65;;;1.00;;
27225;SDS011;14732;51.074;3.788;2022-12-29T03:18:10;5.30;;;0.90;;
27225;SDS011;14732;51.074;3.788;2022-12-29T03:23:17;7.05;;;0.70;;
27225;SDS011;14732;51.074;3.788;2022-12-29T03:25:49;5.97;;;0.80;;
27225;SDS011;14732;51.074;3.788;2022-12-29T03:28:20;7.07;;;1.00;;
27225;SDS011;14732;51.074;3.788;2022-12-29T03:30:50;5.43;;;1.10;;
27225;SDS011;14732;51.074;3.788;2022-12-29T03:33:21;9.70;;;1.17;;
27225;SDS011;14732;51.074;3.788;2022-12-29T03:35:50;5.45;;;0.88;;
27225;SDS011;14732;51.074;3.788;2022-12-29T03:38:20;4.72;;;0.73;;
27225;SDS011;14732;51.074;3.788;2022-12-29T03:41:11;7.10;;;0.98;;
27225;SDS011;14732;51.074;3.788;2022-12-29T03:43:41;8.60;;;1.20;;
27225;SDS011;14732;51.074;3.788;2022-12-29T03:46:07;7.25;;;0.80;;
27225;SDS011;14732;51.074;3.788;2022-12-29T03:48:32;4.25;;;1.00;;
27225;SDS011;14732;51.074;3.788;2022-12-29T03:50:58;4.80;;;0.60;;
27225;SDS011;14732;51.074;3.788;2022-12-29T03:53:24;6.55;;;1.00;;
27225;SDS011;14732;51.074;3.788;2022-12-29T03:55:49;5.05;;;1.00;;
27225;SDS011;14732;51.074;3.788;2022-12-29T03:58:15;4.45;;;1.20;;
27225;SDS011;14732;51.074;3.788;2022-12-29T04:00:41;5.22;;;0.77;;
27225;SDS011;14732;51.074;3.788;2022-12-29T04:03:07;7.25;;;1.02;;
27225;SDS011;14732;51.074;3.788;2022-12-29T04:05:32;8.15;;;1.10;;
27225;SDS011;14732;51.074;3.788;2022-12-29T04:07:58;6.60;;;0.90;;
27225;SDS011;14732;51.074;3.788;2022-12-29T04:10:24;6.60;;;0.90;;
27225;SDS011;14732;51.074;3.788;2022-12-29T04:12:50;6.43;;;1.10;;
27225;SDS011;14732;51.074;3.788;2022-12-29T04:15:16;8.88;;;0.80;;
27225;SDS011;14732;51.074;3.788;2022-12-29T04:17:42;7.05;;;1.00;;
27225;SDS011;14732;51.074;3.788;2022-12-29T04:20:08;7.03;;;1.10;;
27225;SDS011;14732;51.074;3.788;2022-12-29T04:23:01;10.05;;;0.90;;
27225;SDS011;14732;51.074;3.788;2022-12-29T04:25:31;8.18;;;0.88;;
27225;SDS011;14732;51.074;3.788;2022-12-29T04:27:57;6.93;;;1.05;;
27225;SDS011;14732;51.074;3.788;2022-12-29T04:30:23;7.90;;;0.95;;
27225;SDS011;14732;51.074;3.788;2022-12-29T04:32:49;8.52;;;1.00;;
27225;SDS011;14732;51.074;3.788;2022-12-29T04:35:15;8.93;;;1.00;;
27225;SDS011;14732;51.074;3.788;2022-12-29T04:37:41;9.73;;;1.20;;
27225;SDS011;14732;51.074;3.788;2022-12-29T04:40:07;6.97;;;1.10;;
27225;SDS011;14732;51.074;3.788;2022-12-29T04:42:33;9.38;;;1.20;;
27225;SDS011;14732;51.074;3.788;2022-12-29T04:44:59;9.18;;;1.30;;
27225;SDS011;14732;51.074;3.788;2022-12-29T04:47:24;9.05;;;1.27;;
27225;SDS011;14732;51.074;3.788;2022-12-29T04:49:50;5.57;;;1.00;;
27225;SDS011;14732;51.074;3.788;2022-12-29T04:52:15;8.23;;;0.95;;
27225;SDS011;14732;51.074;3.788;2022-12-29T04:54:41;4.82;;;1.10;;
27225;SDS011;14732;51.074;3.788;2022-12-29T04:57:07;6.70;;;0.85;;
27225;SDS011;14732;51.074;3.788;2022-12-29T04:59:32;4.55;;;0.82;;
27225;SDS011;14732;51.074;3.788;2022-12-29T05:01:58;5.53;;;1.27;;
27225;SDS011;14732;51.074;3.788;2022-12-29T05:04:24;4.15;;;0.82;;
27225;SDS011;14732;51.074;3.788;2022-12-29T05:06:49;5.32;;;0.93;;
27225;SDS011;14732;51.074;3.788;2022-12-29T05:09:15;5.32;;;0.88;;
27225;SDS011;14732;51.074;3.788;2022-12-29T05:11:41;9.50;;;0.93;;
27225;SDS011;14732;51.074;3.788;2022-12-29T05:14:06;6.60;;;1.13;;
27225;SDS011;14732;51.074;3.788;2022-12-29T05:16:32;6.00;;;1.00;;
27225;SDS011;14732;51.074;3.788;2022-12-29T05:18:58;4.65;;;0.52;;
27225;SDS011;14732;51.074;3.788;2022-12-29T05:21:23;7.65;;;0.85;;
27225;SDS011;14732;51.074;3.788;2022-12-29T05:23:49;7.93;;;0.90;;
27225;SDS011;14732;51.074;3.788;2022-12-29T05:26:15;5.85;;;0.98;;
27225;SDS011;14732;51.074;3.788;2022-12-29T05:28:41;7.22;;;1.13;;
27225;SDS011;14732;51.074;3.788;2022-12-29T05:31:06;7.60;;;1.00;;
27225;SDS011;14732;51.074;3.788;2022-12-29T05:33:32;4.43;;;0.73;;
27225;SDS011;14732;51.074;3.788;2022-12-29T05:36:03;9.88;;;1.00;;
27225;SDS011;14732;51.074;3.788;2022-12-29T05:38:30;9.23;;;0.98;;
27225;SDS011;14732;51.074;3.788;2022-12-29T05:40:55;4.75;;;0.77;;
27225;SDS011;14732;51.074;3.788;2022-12-29T05:43:21;8.50;;;1.00;;
27225;SDS011;14732;51.074;3.788;2022-12-29T05:45:50;8.07;;;1.42;;
27225;SDS011;14732;51.074;3.788;2022-12-29T05:48:16;6.88;;;0.90;;
27225;SDS011;14732;51.074;3.788;2022-12-29T05:50:42;5.47;;;1.00;;
27225;SDS011;14732;51.074;3.788;2022-12-29T05:53:07;6.80;;;1.10;;
27225;SDS011;14732;51.074;3.788;2022-12-29T05:55:34;6.57;;;0.90;;
27225;SDS011;14732;51.074;3.788;2022-12-29T05:57:59;4.07;;;0.65;;
27225;SDS011;14732;51.074;3.788;2022-12-29T06:00:25;8.80;;;1.30;;
27225;SDS011;14732;51.074;3.788;2022-12-29T06:02:51;10.43;;;1.55;;
27225;SDS011;14732;51.074;3.788;2022-12-29T06:05:16;7.82;;;0.98;;
27225;SDS011;14732;51.074;3.788;2022-12-29T06:07:42;7.25;;;1.20;;
27225;SDS011;14732;51.074;3.788;2022-12-29T06:10:09;9.52;;;1.50;;
27225;SDS011;14732;51.074;3.788;2022-12-29T06:12:35;8.40;;;1.40;;
27225;SDS011;14732;51.074;3.788;2022-12-29T06:15:01;9.50;;;1.30;;
27225;SDS011;14732;51.074;3.788;2022-12-29T06:17:26;10.07;;;1.35;;
27225;SDS011;14732;51.074;3.788;2022-12-29T06:19:52;5.97;;;1.15;;
27225;SDS011;14732;51.074;3.788;2022-12-29T06:22:18;8.43;;;1.60;;
27225;SDS011;14732;51.074;3.788;2022-12-29T06:24:43;11.07;;;1.38;;
27225;SDS011;14732;51.074;3.788;2022-12-29T06:27:09;10.55;;;1.13;;
27225;SDS011;14732;51.074;3.788;2022-12-29T06:29:35;10.25;;;1.48;;
27225;SDS011;14732;51.074;3.788;2022-12-29T06:32:02;13.90;;;1.33;;
27225;SDS011;14732;51.074;3.788;2022-12-29T06:34:28;8.82;;;1.45;;
27225;SDS011;14732;51.074;3.788;2022-12-29T06:36:54;8.43;;;1.27;;
27225;SDS011;14732;51.074;3.788;2022-12-29T06:39:20;6.30;;;1.20;;
27225;SDS011;14732;51.074;3.788;2022-12-29T06:41:45;12.15;;;1.40;;
27225;SDS011;14732;51.074;3.788;2022-12-29T06:44:11;10.00;;;1.23;;
27225;SDS011;14732;51.074;3.788;2022-12-29T06:46:36;10.10;;;1.73;;
27225;SDS011;14732;51.074;3.788;2022-12-29T06:49:02;10.25;;;1.67;;
27225;SDS011;14732;51.074;3.788;2022-12-29T06:51:28;11.60;;;1.70;;
27225;SDS011;14732;51.074;3.788;2022-12-29T06:53:53;8.77;;;1.48;;
27225;SDS011;14732;51.074;3.788;2022-12-29T06:56:19;12.75;;;1.38;;
27225;SDS011;14732;51.074;3.788;2022-12-29T06:58:45;9.77;;;1.48;;
27225;SDS011;14732;51.074;3.788;2022-12-29T07:01:10;8.88;;;1.50;;
27225;SDS011;14732;51.074;3.788;2022-12-29T07:03:36;14.00;;;1.60;;
27225;SDS011;14732;51.074;3.788;2022-12-29T07:06:02;9.45;;;1.50;;
27225;SDS011;14732;51.074;3.788;2022-12-29T07:08:28;12.07;;;1.80;;
27225;SDS011;14732;51.074;3.788;2022-12-29T07:10:53;14.13;;;1.60;;
27225;SDS011;14732;51.074;3.788;2022-12-29T07:13:19;9.85;;;1.15;;
27225;SDS011;14732;51.074;3.788;2022-12-29T07:15:44;9.43;;;1.30;;
27225;SDS011;14732;51.074;3.788;2022-12-29T07:18:10;6.40;;;1.30;;
27225;SDS011;14732;51.074;3.788;2022-12-29T07:20:36;12.18;;;1.90;;
27225;SDS011;14732;51.074;3.788;2022-12-29T07:23:02;9.27;;;1.30;;
27225;SDS011;14732;51.074;3.788;2022-12-29T07:25:27;11.75;;;1.67;;
27225;SDS011;14732;51.074;3.788;2022-12-29T07:27:54;8.40;;;1.45;;
27225;SDS011;14732;51.074;3.788;2022-12-29T07:30:20;12.00;;;1.88;;
27225;SDS011;14732;51.074;3.788;2022-12-29T07:32:45;11.70;;;1.50;;
27225;SDS011;14732;51.074;3.788;2022-12-29T07:35:11;12.27;;;1.58;;
27225;SDS011;14732;51.074;3.788;2022-12-29T07:37:37;12.35;;;1.60;;
27225;SDS011;14732;51.074;3.788;2022-12-29T07:40:03;7.80;;;1.48;;
27225;SDS011;14732;51.074;3.788;2022-12-29T07:42:29;12.60;;;1.60;;
27225;SDS011;14732;51.074;3.788;2022-12-29T07:44:56;13.00;;;1.80;;
27225;SDS011;14732;51.074;3.788;2022-12-29T07:47:21;7.93;;;1.15;;
27225;SDS011;14732;51.074;3.788;2022-12-29T07:49:47;13.27;;;1.67;;
27225;SDS011;14732;51.074;3.788;2022-12-29T07:52:12;10.13;;;1.50;;
27225;SDS011;14732;51.074;3.788;2022-12-29T07:54:38;20.80;;;2.22;;
27225;SDS011;14732;51.074;3.788;2022-12-29T07:57:04;10.82;;;1.50;;
27225;SDS011;14732;51.074;3.788;2022-12-29T07:59:31;13.00;;;1.52;;
27225;SDS011;14732;51.074;3.788;2022-12-29T08:01:56;15.15;;;1.52;;
27225;SDS011;14732;51.074;3.788;2022-12-29T08:04:22;12.45;;;1.65;;
27225;SDS011;14732;51.074;3.788;2022-12-29T08:06:48;7.65;;;1.20;;
27225;SDS011;14732;51.074;3.788;2022-12-29T08:09:14;12.20;;;1.58;;
27225;SDS011;14732;51.074;3.788;2022-12-29T08:11:39;9.57;;;1.35;;
27225;SDS011;14732;51.074;3.788;2022-12-29T08:14:05;10.73;;;1.23;;
27225;SDS011;14732;51.074;3.788;2022-12-29T08:16:31;10.27;;;1.40;;
27225;SDS011;14732;51.074;3.788;2022-12-29T08:18:57;13.18;;;1.70;;
27225;SDS011;14732;51.074;3.788;2022-12-29T08:21:24;11.27;;;1.42;;
27225;SDS011;14732;51.074;3.788;2022-12-29T08:23:50;8.20;;;1.63;;
27225;SDS011;14732;51.074;3.788;2022-12-29T08:26:15;14.60;;;1.73;;
27225;SDS011;14732;51.074;3.788;2022-12-29T08:28:41;9.65;;;1.70;;
27225;SDS011;14732;51.074;3.788;2022-12-29T08:31:07;9.93;;;1.52;;
27225;SDS011;14732;51.074;3.788;2022-12-29T08:33:32;15.13;;;1.65;;
27225;SDS011;14732;51.074;3.788;2022-12-29T08:35:59;13.20;;;1.63;;
27225;SDS011;14732;51.074;3.788;2022-12-29T08:38:29;16.05;;;1.75;;
27225;SDS011;14732;51.074;3.788;2022-12-29T08:40:55;8.30;;;1.58;;
27225;SDS011;14732;51.074;3.788;2022-12-29T08:43:22;8.35;;;1.50;;
27225;SDS011;14732;51.074;3.788;2022-12-29T08:45:48;13.23;;;1.80;;
27225;SDS011;14732;51.074;3.788;2022-12-29T08:48:13;10.40;;;1.42;;
27225;SDS011;14732;51.074;3.788;2022-12-29T08:50:43;12.02;;;1.17;;
27225;SDS011;14732;51.074;3.788;2022-12-29T08:53:09;14.27;;;1.90;;
27225;SDS011;14732;51.074;3.788;2022-12-29T08:55:35;9.10;;;1.40;;
27225;SDS011;14732;51.074;3.788;2022-12-29T08:58:00;14.75;;;1.80;;
27225;SDS011;14732;51.074;3.788;2022-12-29T09:00:26;14.45;;;2.00;;
27225;SDS011;14732;51.074;3.788;2022-12-29T09:02:52;19.45;;;2.15;;
27225;SDS011;14732;51.074;3.788;2022-12-29T09:05:18;12.10;;;1.88;;
27225;SDS011;14732;51.074;3.788;2022-12-29T09:07:43;17.10;;;1.80;;
27225;SDS011;14732;51.074;3.788;2022-12-29T09:10:09;20.25;;;1.20;;
27225;SDS011;14732;51.074;3.788;2022-12-29T09:12:35;9.68;;;1.48;;
27225;SDS011;14732;51.074;3.788;2022-12-29T09:15:01;12.65;;;1.73;;
27225;SDS011;14732;51.074;3.788;2022-12-29T09:17:26;15.60;;;1.98;;
27225;SDS011;14732;51.074;3.788;2022-12-29T09:20:14;12.40;;;1.90;;
27225;SDS011;14732;51.074;3.788;2022-12-29T09:22:42;14.55;;;1.65;;
27225;SDS011;14732;51.074;3.788;2022-12-29T09:25:09;14.75;;;1.83;;
27225;SDS011;14732;51.074;3.788;2022-12-29T09:27:36;11.35;;;1.85;;
27225;SDS011;14732;51.074;3.788;2022-12-29T09:30:02;13.95;;;2.08;;
27225;SDS011;14732;51.074;3.788;2022-12-29T09:32:30;12.82;;;1.80;;
27225;SDS011;14732;51.074;3.788;2022-12-29T09:34:56;10.88;;;2.15;;
27225;SDS011;14732;51.074;3.788;2022-12-29T09:37:22;13.40;;;1.95;;
27225;SDS011;14732;51.074;3.788;2022-12-29T09:39:47;10.43;;;1.92;;
27225;SDS011;14732;51.074;3.788;2022-12-29T09:47:39;19.42;;;2.38;;
27225;SDS011;14732;51.074;3.788;2022-12-29T09:52:58;11.82;;;1.75;;
27225;SDS011;14732;51.074;3.788;2022-12-29T09:55:29;20.48;;;2.38;;
27225;SDS011;14732;51.074;3.788;2022-12-29T09:58:04;10.65;;;2.22;;
27225;SDS011;14732;51.074;3.788;2022-12-29T10:00:38;14.98;;;1.90;;
27225;SDS011;14732;51.074;3.788;2022-12-29T10:03:15;16.10;;;1.95;;
27225;SDS011;14732;51.074;3.788;2022-12-29T10:05:46;11.45;;;1.70;;
27225;SDS011;14732;51.074;3.788;2022-12-29T10:08:25;15.75;;;1.95;;
27225;SDS011;14732;51.074;3.788;2022-12-29T10:10:54;17.05;;;2.15;;
27225;SDS011;14732;51.074;3.788;2022-12-29T10:13:39;20.13;;;2.53;;
27225;SDS011;14732;51.074;3.788;2022-12-29T10:24:20;16.10;;;2.10;;
27225;SDS011;14732;51.074;3.788;2022-12-29T10:26:47;16.25;;;1.55;;
27225;SDS011;14732;51.074;3.788;2022-12-29T10:29:19;16.45;;;2.20;;
27225;SDS011;14732;51.074;3.788;2022-12-29T10:32:00;12.23;;;1.92;;
27225;SDS011;14732;51.074;3.788;2022-12-29T10:34:42;11.15;;;1.80;;
27225;SDS011;14732;51.074;3.788;2022-12-29T10:37:34;13.85;;;1.90;;
27225;SDS011;14732;51.074;3.788;2022-12-29T10:42:57;13.30;;;1.88;;
27225;SDS011;14732;51.074;3.788;2022-12-29T10:45:25;13.40;;;1.80;;
27225;SDS011;14732;51.074;3.788;2022-12-29T10:48:00;9.93;;;1.50;;
27225;SDS011;14732;51.074;3.788;2022-12-29T10:50:34;14.18;;;1.73;;
27225;SDS011;14732;51.074;3.788;2022-12-29T10:53:00;7.65;;;1.30;;
27225;SDS011;14732;51.074;3.788;2022-12-29T10:55:33;9.88;;;1.42;;
27225;SDS011;14732;51.074;3.788;2022-12-29T10:58:02;10.75;;;1.27;;
27225;SDS011;14732;51.074;3.788;2022-12-29T11:00:31;10.77;;;1.27;;
27225;SDS011;14732;51.074;3.788;2022-12-29T11:05:56;10.70;;;1.40;;
27225;SDS011;14732;51.074;3.788;2022-12-29T11:08:36;6.25;;;1.00;;
27225;SDS011;14732;51.074;3.788;2022-12-29T11:11:05;9.45;;;1.13;;
27225;SDS011;14732;51.074;3.788;2022-12-29T11:13:33;7.33;;;1.43;;
27225;SDS011;14732;51.074;3.788;2022-12-29T11:16:00;10.73;;;1.42;;
27225;SDS011;14732;51.074;3.788;2022-12-29T11:18:35;10.45;;;1.67;;
27225;SDS011;14732;51.074;3.788;2022-12-29T11:21:03;7.53;;;1.40;;
27225;SDS011;14732;51.074;3.788;2022-12-29T11:23:41;7.28;;;1.10;;
27225;SDS011;14732;51.074;3.788;2022-12-29T11:28:39;9.02;;;1.30;;
27225;SDS011;14732;51.074;3.788;2022-12-29T11:31:06;11.70;;;1.60;;
27225;SDS011;14732;51.074;3.788;2022-12-29T11:33:35;10.15;;;1.90;;
27225;SDS011;14732;51.074;3.788;2022-12-29T11:36:02;5.35;;;1.20;;
27225;SDS011;14732;51.074;3.788;2022-12-29T11:38:34;9.75;;;1.20;;
27225;SDS011;14732;51.074;3.788;2022-12-29T11:41:02;11.60;;;1.60;;
27225;SDS011;14732;51.074;3.788;2022-12-29T11:45:59;9.25;;;1.58;;
27225;SDS011;14732;51.074;3.788;2022-12-29T11:48:29;10.55;;;1.60;;
27225;SDS011;14732;51.074;3.788;2022-12-29T11:51:02;11.48;;;1.75;;
27225;SDS011;14732;51.074;3.788;2022-12-29T11:53:37;11.77;;;1.52;;
27225;SDS011;14732;51.074;3.788;2022-12-29T11:56:11;10.63;;;1.80;;
27225;SDS011;14732;51.074;3.788;2022-12-29T11:58:42;16.75;;;2.28;;
27225;SDS011;14732;51.074;3.788;2022-12-29T12:06:21;14.13;;;1.70;;
27225;SDS011;14732;51.074;3.788;2022-12-29T12:08:56;11.43;;;1.88;;
27225;SDS011;14732;51.074;3.788;2022-12-29T12:11:37;12.20;;;1.90;;
27225;SDS011;14732;51.074;3.788;2022-12-29T12:16:43;11.45;;;1.90;;
27225;SDS011;14732;51.074;3.788;2022-12-29T12:19:31;14.05;;;2.05;;
27225;SDS011;14732;51.074;3.788;2022-12-29T12:24:47;9.65;;;1.67;;
27225;SDS011;14732;51.074;3.788;2022-12-29T12:35:32;6.45;;;1.40;;
27225;SDS011;14732;51.074;3.788;2022-12-29T12:43:37;8.38;;;1.02;;
27225;SDS011;14732;51.074;3.788;2022-12-29T12:46:23;6.10;;;1.10;;
27225;SDS011;14732;51.074;3.788;2022-12-29T12:49:16;5.28;;;0.80;;
27225;SDS011;14732;51.074;3.788;2022-12-29T12:54:52;5.18;;;0.80;;
27225;SDS011;14732;51.074;3.788;2022-12-29T13:00:19;6.78;;;1.10;;
27225;SDS011;14732;51.074;3.788;2022-12-29T13:03:01;4.53;;;1.13;;
27225;SDS011;14732;51.074;3.788;2022-12-29T13:13:42;6.70;;;1.00;;
27225;SDS011;14732;51.074;3.788;2022-12-29T13:24:11;5.13;;;1.10;;
27225;SDS011;14732;51.074;3.788;2022-12-29T13:27:13;11.23;;;1.30;;
27225;SDS011;14732;51.074;3.788;2022-12-29T13:29:50;5.82;;;1.10;;
27225;SDS011;14732;51.074;3.788;2022-12-29T13:37:28;4.65;;;0.80;;
27225;SDS011;14732;51.074;3.788;2022-12-29T13:40:01;3.35;;;0.75;;
27225;SDS011;14732;51.074;3.788;2022-12-29T13:42:40;3.95;;;0.60;;
27225;SDS011;14732;51.074;3.788;2022-12-29T13:45:10;4.05;;;0.80;;
27225;SDS011;14732;51.074;3.788;2022-12-29T13:50:15;2.60;;;0.70;;
27225;SDS011;14732;51.074;3.788;2022-12-29T13:53:08;3.50;;;0.70;;
27225;SDS011;14732;51.074;3.788;2022-12-29T13:55:37;2.97;;;0.50;;
27225;SDS011;14732;51.074;3.788;2022-12-29T13:58:23;4.15;;;0.90;;
27225;SDS011;14732;51.074;3.788;2022-12-29T14:01:03;3.40;;;0.70;;
27225;SDS011;14732;51.074;3.788;2022-12-29T14:04:15;5.20;;;0.80;;
27225;SDS011;14732;51.074;3.788;2022-12-29T14:06:58;4.05;;;0.50;;
27225;SDS011;14732;51.074;3.788;2022-12-29T14:09:46;7.63;;;0.98;;
27225;SDS011;14732;51.074;3.788;2022-12-29T14:12:35;5.82;;;0.80;;
27225;SDS011;14732;51.074;3.788;2022-12-29T14:17:34;4.78;;;0.80;;
27225;SDS011;14732;51.074;3.788;2022-12-29T14:20:01;6.43;;;0.90;;
27225;SDS011;14732;51.074;3.788;2022-12-29T14:22:29;2.63;;;0.70;;
27225;SDS011;14732;51.074;3.788;2022-12-29T14:24:54;3.22;;;0.95;;
27225;SDS011;14732;51.074;3.788;2022-12-29T14:29:49;6.25;;;0.93;;
27225;SDS011;14732;51.074;3.788;2022-12-29T14:34:51;4.80;;;0.98;;
27225;SDS011;14732;51.074;3.788;2022-12-29T14:37:25;7.60;;;0.90;;
27225;SDS011;14732;51.074;3.788;2022-12-29T14:42:39;2.63;;;0.70;;
27225;SDS011;14732;51.074;3.788;2022-12-29T14:47:53;6.35;;;1.10;;
27225;SDS011;14732;51.074;3.788;2022-12-29T14:50:24;4.60;;;0.88;;
27225;SDS011;14732;51.074;3.788;2022-12-29T14:53:00;3.70;;;0.93;;
27225;SDS011;14732;51.074;3.788;2022-12-29T15:00:56;2.72;;;0.93;;
27225;SDS011;14732;51.074;3.788;2022-12-29T15:03:23;9.10;;;1.17;;
27225;SDS011;14732;51.074;3.788;2022-12-29T15:05:57;8.60;;;1.50;;
27225;SDS011;14732;51.074;3.788;2022-12-29T15:09:03;7.32;;;1.17;;
27225;SDS011;14732;51.074;3.788;2022-12-29T15:14:01;10.55;;;1.55;;
27225;SDS011;14732;51.074;3.788;2022-12-29T15:16:31;9.80;;;1.77;;
27225;SDS011;14732;51.074;3.788;2022-12-29T15:18:59;10.75;;;1.67;;
27225;SDS011;14732;51.074;3.788;2022-12-29T15:21:26;12.80;;;1.70;;
27225;SDS011;14732;51.074;3.788;2022-12-29T15:23:56;9.45;;;1.30;;
27225;SDS011;14732;51.074;3.788;2022-12-29T15:26:22;11.40;;;1.65;;
27225;SDS011;14732;51.074;3.788;2022-12-29T15:28:52;11.15;;;1.75;;
27225;SDS011;14732;51.074;3.788;2022-12-29T15:33:47;7.18;;;1.50;;
27225;SDS011;14732;51.074;3.788;2022-12-29T15:36:19;7.00;;;1.20;;
27225;SDS011;14732;51.074;3.788;2022-12-29T15:38:47;11.93;;;1.35;;
27225;SDS011;14732;51.074;3.788;2022-12-29T15:46:10;7.45;;;1.17;;
27225;SDS011;14732;51.074;3.788;2022-12-29T15:48:36;4.10;;;0.88;;
27225;SDS011;14732;51.074;3.788;2022-12-29T15:51:10;8.02;;;1.17;;
27225;SDS011;14732;51.074;3.788;2022-12-29T15:53:51;11.48;;;1.60;;
27225;SDS011;14732;51.074;3.788;2022-12-29T15:56:17;7.13;;;1.10;;
27225;SDS011;14732;51.074;3.788;2022-12-29T15:58:44;10.35;;;1.35;;
27225;SDS011;14732;51.074;3.788;2022-12-29T16:01:27;10.68;;;1.20;;
27225;SDS011;14732;51.074;3.788;2022-12-29T16:03:58;14.55;;;2.35;;
27225;SDS011;14732;51.074;3.788;2022-12-29T16:06:36;15.05;;;1.50;;
27225;SDS011;14732;51.074;3.788;2022-12-29T16:09:16;8.55;;;1.77;;
27225;SDS011;14732;51.074;3.788;2022-12-29T16:11:44;14.27;;;1.50;;
27225;SDS011;14732;51.074;3.788;2022-12-29T16:14:19;15.93;;;2.10;;
27225;SDS011;14732;51.074;3.788;2022-12-29T16:16:57;12.60;;;1.85;;
27225;SDS011;14732;51.074;3.788;2022-12-29T16:22:00;8.80;;;1.30;;
27225;SDS011;14732;51.074;3.788;2022-12-29T16:24:29;12.35;;;1.50;;
27225;SDS011;14732;51.074;3.788;2022-12-29T16:27:07;9.63;;;1.63;;
27225;SDS011;14732;51.074;3.788;2022-12-29T16:29:48;9.82;;;1.60;;
27225;SDS011;14732;51.074;3.788;2022-12-29T16:32:29;16.05;;;1.75;;
27225;SDS011;14732;51.074;3.788;2022-12-29T16:37:43;12.82;;;1.60;;
27225;SDS011;14732;51.074;3.788;2022-12-29T16:40:28;20.67;;;2.50;;
27225;SDS011;14732;51.074;3.788;2022-12-29T16:42:57;9.85;;;1.65;;
27225;SDS011;14732;51.074;3.788;2022-12-29T16:45:38;14.68;;;2.35;;
27225;SDS011;14732;51.074;3.788;2022-12-29T16:50:49;12.38;;;2.10;;
27225;SDS011;14732;51.074;3.788;2022-12-29T16:53:29;14.30;;;2.30;;
27225;SDS011;14732;51.074;3.788;2022-12-29T16:56:01;10.50;;;2.15;;
27225;SDS011;14732;51.074;3.788;2022-12-29T16:58:39;15.85;;;2.50;;
27225;SDS011;14732;51.074;3.788;2022-12-29T17:01:06;15.43;;;2.38;;
27225;SDS011;14732;51.074;3.788;2022-12-29T17:03:40;13.15;;;2.30;;
27225;SDS011;14732;51.074;3.788;2022-12-29T17:06:14;11.20;;;2.22;;
27225;SDS011;14732;51.074;3.788;2022-12-29T17:08:41;18.70;;;2.47;;
27225;SDS011;14732;51.074;3.788;2022-12-29T17:11:19;13.98;;;2.35;;
27225;SDS011;14732;51.074;3.788;2022-12-29T17:14:04;17.50;;;2.30;;
27225;SDS011;14732;51.074;3.788;2022-12-29T17:16:30;15.52;;;2.08;;
27225;SDS011;14732;51.074;3.788;2022-12-29T17:18:55;14.98;;;2.80;;
27225;SDS011;14732;51.074;3.788;2022-12-29T17:21:21;15.95;;;2.53;;
27225;SDS011;14732;51.074;3.788;2022-12-29T17:23:47;14.02;;;2.17;;
27225;SDS011;14732;51.074;3.788;2022-12-29T17:26:13;17.25;;;2.95;;
27225;SDS011;14732;51.074;3.788;2022-12-29T17:28:38;18.95;;;2.30;;
27225;SDS011;14732;51.074;3.788;2022-12-29T17:31:05;19.92;;;2.90;;
27225;SDS011;14732;51.074;3.788;2022-12-29T17:33:34;12.82;;;2.03;;
27225;SDS011;14732;51.074;3.788;2022-12-29T17:36:01;19.13;;;2.83;;
27225;SDS011;14732;51.074;3.788;2022-12-29T17:38:29;18.42;;;2.72;;
27225;SDS011;14732;51.074;3.788;2022-12-29T17:40:56;15.15;;;2.10;;